sensor_id;sensor_type;location;lat;lon;timestamp;pressure;altitude;pressure_sealevel;temperature;humidity
39699;BME280;25372;50.582;12.250;2023-06-14T00:03:03;99818.59;;;11.22;70.08
39699;BME280;25372;50.582;12.250;2023-06-14T00:13:24;99816.97;;;11.34;71.10
39699;BME280;25372;50.582;12.250;2023-06-14T00:23:46;99812.63;;;11.20;69.49
39699;BME280;25372;50.582;12.250;2023-06-14T00:34:07;99816.63;;;10.85;70.77
39699;BME280;25372;50.582;12.250;2023-06-14T00:44:30;99811.56;;;10.82;71.76
39699;BME280;25372;50.582;12.250;2023-06-14T00:54:51;99819.09;;;10.74;71.71
39699;BME280;25372;50.582;12.250;2023-06-14T01:05:13;99809.38;;;10.61;72.62
39699;BME280;25372;50.582;12.250;2023-06-14T01:15:36;99810.41;;;10.02;79.29
39699;BME280;25372;50.582;12.250;2023-06-14T01:26:00;99802.91;;;9.67;80.28
39699;BME280;25372;50.582;12.250;2023-06-14T01:36:27;99796.72;;;9.54;80.97
39699;BME280;25372;50.582;12.250;2023-06-14T01:46:52;99790.41;;;9.27;81.34
39699;BME280;25372;50.582;12.250;2023-06-14T01:57:16;99790.66;;;9.22;82.44
39699;BME280;25372;50.582;12.250;2023-06-14T02:07:38;99800.00;;;9.12;82.56
39699;BME280;25372;50.582;12.250;2023-06-14T02:18:00;99814.38;;;9.21;83.61
39699;BME280;25372;50.582;12.250;2023-06-14T02:28:22;99813.22;;;9.11;83.74
39699;BME280;25372;50.582;12.250;2023-06-14T02:38:44;99822.88;;;8.78;83.51
39699;BME280;25372;50.582;12.250;2023-06-14T02:49:06;99820.91;;;8.98;83.15
39699;BME280;25372;50.582;12.250;2023-06-14T02:59:27;99832.09;;;8.85;83.16
39699;BME280;25372;50.582;12.250;2023-06-14T03:09:51;99827.13;;;8.80;84.97
39699;BME280;25372;50.582;12.250;2023-06-14T03:20:13;99830.66;;;8.79;83.31
39699;BME280;25372;50.582;12.250;2023-06-14T03:30:37;99842.22;;;9.07;81.48
39699;BME280;25372;50.582;12.250;2023-06-14T03:40:58;99845.44;;;9.27;83.13
39699;BME280;25372;50.582;12.250;2023-06-14T03:51:21;99858.97;;;9.50;79.91
39699;BME280;25372;50.582;12.250;2023-06-14T04:01:42;99871.00;;;9.69;79.40
39699;BME280;25372;50.582;12.250;2023-06-14T04:12:07;99885.66;;;9.87;79.25
39699;BME280;25372;50.582;12.250;2023-06-14T04:22:28;99884.81;;;10.16;77.41
39699;BME280;25372;50.582;12.250;2023-06-14T04:32:53;99891.81;;;10.59;76.43
39699;BME280;25372;50.582;12.250;2023-06-14T04:43:16;99878.69;;;11.01;76.37
39699;BME280;25372;50.582;12.250;2023-06-14T04:53:40;99904.94;;;15.38;59.88
39699;BME280;25372;50.582;12.250;2023-06-14T05:04:02;99902.81;;;15.96;56.73
39699;BME280;25372;50.582;12.250;2023-06-14T05:14:24;99905.72;;;14.62;62.11
39699;BME280;25372;50.582;12.250;2023-06-14T05:24:45;99914.03;;;16.91;53.68
39699;BME280;25372;50.582;12.250;2023-06-14T05:35:09;99909.38;;;17.44;51.46
39699;BME280;25372;50.582;12.250;2023-06-14T05:45:30;99913.06;;;17.81;52.19
39699;BME280;25372;50.582;12.250;2023-06-14T05:55:53;99917.59;;;14.67;59.62
39699;BME280;25372;50.582;12.250;2023-06-14T06:06:14;99917.44;;;15.03;59.87
39699;BME280;25372;50.582;12.250;2023-06-14T06:16:37;99925.94;;;17.07;53.41
39699;BME280;25372;50.582;12.250;2023-06-14T06:26:58;99944.88;;;14.91;60.00
39699;BME280;25372;50.582;12.250;2023-06-14T06:37:21;99949.22;;;14.69;60.57
39699;BME280;25372;50.582;12.250;2023-06-14T06:47:41;99961.53;;;14.00;63.33
39699;BME280;25372;50.582;12.250;2023-06-14T06:58:03;99950.16;;;14.91;59.87
39699;BME280;25372;50.582;12.250;2023-06-14T07:08:25;99951.00;;;14.91;59.80
39699;BME280;25372;50.582;12.250;2023-06-14T07:18:47;99963.78;;;15.19;60.97
39699;BME280;25372;50.582;12.250;2023-06-14T07:29:08;99956.91;;;15.93;59.59
39699;BME280;25372;50.582;12.250;2023-06-14T07:39:30;99954.56;;;16.00;58.24
39699;BME280;25372;50.582;12.250;2023-06-14T07:49:51;99960.09;;;16.18;57.53
39699;BME280;25372;50.582;12.250;2023-06-14T08:00:14;99949.16;;;16.73;53.80
39699;BME280;25372;50.582;12.250;2023-06-14T08:10:34;99953.75;;;17.12;52.27
39699;BME280;25372;50.582;12.250;2023-06-14T08:20:57;99957.53;;;17.69;49.91
39699;BME280;25372;50.582;12.250;2023-06-14T08:31:18;99961.59;;;19.24;46.67
39699;BME280;25372;50.582;12.250;2023-06-14T08:41:40;99946.72;;;22.15;38.86
39699;BME280;25372;50.582;12.250;2023-06-14T08:52:01;99949.56;;;19.56;41.86
39699;BME280;25372;50.582;12.250;2023-06-14T09:02:23;99947.78;;;21.72;38.20
39699;BME280;25372;50.582;12.250;2023-06-14T09:12:44;99957.56;;;22.21;37.05
39699;BME280;25372;50.582;12.250;2023-06-14T09:23:08;99956.69;;;24.48;34.44
39699;BME280;25372;50.582;12.250;2023-06-14T09:33:30;99952.81;;;22.57;35.59
39699;BME280;25372;50.582;12.250;2023-06-14T09:43:53;99949.25;;;22.08;38.89
39699;BME280;25372;50.582;12.250;2023-06-14T09:54:22;99946.44;;;21.43;43.32
39699;BME280;25372;50.582;12.250;2023-06-14T10:04:46;99929.78;;;21.74;37.64
39699;BME280;25372;50.582;12.250;2023-06-14T10:15:15;99941.38;;;20.99;40.14
39699;BME280;25372;50.582;12.250;2023-06-14T10:25:38;99933.41;;;20.64;42.10
39699;BME280;25372;50.582;12.250;2023-06-14T10:36:10;99949.09;;;19.61;43.24
39699;BME280;25372;50.582;12.250;2023-06-14T10:46:32;99953.13;;;20.10;43.60
39699;BME280;25372;50.582;12.250;2023-06-14T10:56:53;99945.84;;;19.49;45.93
39699;BME280;25372;50.582;12.250;2023-06-14T11:07:30;99940.66;;;19.11;47.34
39699;BME280;25372;50.582;12.250;2023-06-14T11:18:01;99923.25;;;19.17;46.76
39699;BME280;25372;50.582;12.250;2023-06-14T11:28:23;99922.03;;;18.65;48.24
39699;BME280;25372;50.582;12.250;2023-06-14T11:38:44;99932.19;;;19.52;45.39
39699;BME280;25372;50.582;12.250;2023-06-14T11:49:07;99932.84;;;19.10;49.79
39699;BME280;25372;50.582;12.250;2023-06-14T11:59:29;99930.59;;;18.87;49.49
39699;BME280;25372;50.582;12.250;2023-06-14T12:10:08;99926.69;;;19.72;49.16
39699;BME280;25372;50.582;12.250;2023-06-14T12:20:30;99928.66;;;20.15;47.75
39699;BME280;25372;50.582;12.250;2023-06-14T12:30:52;99913.28;;;20.78;46.95
39699;BME280;25372;50.582;12.250;2023-06-14T12:41:14;99923.63;;;19.85;49.90
39699;BME280;25372;50.582;12.250;2023-06-14T12:51:37;99921.78;;;19.85;48.85
39699;BME280;25372;50.582;12.250;2023-06-14T13:01:59;99902.16;;;20.05;48.96
39699;BME280;25372;50.582;12.250;2023-06-14T13:12:21;99899.88;;;20.61;47.57
39699;BME280;25372;50.582;12.250;2023-06-14T13:22:42;99884.19;;;21.26;45.96
39699;BME280;25372;50.582;12.250;2023-06-14T13:33:04;99884.28;;;20.32;48.06
39699;BME280;25372;50.582;12.250;2023-06-14T13:43:25;99889.47;;;18.53;51.19
39699;BME280;25372;50.582;12.250;2023-06-14T13:53:47;99886.50;;;21.62;43.64
39699;BME280;25372;50.582;12.250;2023-06-14T14:04:08;99871.81;;;24.10;36.86
39699;BME280;25372;50.582;12.250;2023-06-14T14:14:32;99865.91;;;22.76;41.64
39699;BME280;25372;50.582;12.250;2023-06-14T14:24:53;99876.88;;;19.91;48.80
39699;BME280;25372;50.582;12.250;2023-06-14T14:35:15;99870.13;;;24.61;37.43
39699;BME280;25372;50.582;12.250;2023-06-14T14:45:37;99856.59;;;25.56;36.54
39699;BME280;25372;50.582;12.250;2023-06-14T14:55:59;99857.13;;;23.14;38.50
39699;BME280;25372;50.582;12.250;2023-06-14T15:06:20;99855.91;;;22.70;39.53
39699;BME280;25372;50.582;12.250;2023-06-14T15:16:42;99841.50;;;25.05;35.76
39699;BME280;25372;50.582;12.250;2023-06-14T15:27:03;99855.44;;;21.53;39.51
39699;BME280;25372;50.582;12.250;2023-06-14T15:37:25;99844.13;;;22.56;38.21
39699;BME280;25372;50.582;12.250;2023-06-14T15:47:46;99856.72;;;20.66;41.47
39699;BME280;25372;50.582;12.250;2023-06-14T15:58:08;99857.66;;;19.52;44.87
39699;BME280;25372;50.582;12.250;2023-06-14T16:08:29;99848.97;;;21.06;41.44
39699;BME280;25372;50.582;12.250;2023-06-14T16:18:51;99844.09;;;21.68;39.38
39699;BME280;25372;50.582;12.250;2023-06-14T16:29:11;99838.97;;;21.24;38.75
39699;BME280;25372;50.582;12.250;2023-06-14T16:39:34;99836.06;;;21.84;36.70
39699;BME280;25372;50.582;12.250;2023-06-14T16:49:55;99854.78;;;21.43;36.97
39699;BME280;25372;50.582;12.250;2023-06-14T17:00:19;99854.78;;;21.43;36.66
39699;BME280;25372;50.582;12.250;2023-06-14T17:10:40;99863.16;;;21.31;35.64
39699;BME280;25372;50.582;12.250;2023-06-14T17:21:02;99873.81;;;21.81;38.70
39699;BME280;25372;50.582;12.250;2023-06-14T17:31:22;99874.66;;;21.40;38.99
39699;BME280;25372;50.582;12.250;2023-06-14T17:41:45;99875.31;;;20.92;39.04
39699;BME280;25372;50.582;12.250;2023-06-14T17:52:06;99878.47;;;19.75;42.00
39699;BME280;25372;50.582;12.250;2023-06-14T18:02:28;99878.69;;;19.19;44.73
39699;BME280;25372;50.582;12.250;2023-06-14T18:12:52;99893.41;;;18.77;45.06
39699;BME280;25372;50.582;12.250;2023-06-14T18:23:14;99899.66;;;18.30;48.75
39699;BME280;25372;50.582;12.250;2023-06-14T18:33:35;99905.22;;;17.89;48.61
39699;BME280;25372;50.582;12.250;2023-06-14T18:43:56;99914.94;;;17.70;50.58
39699;BME280;25372;50.582;12.250;2023-06-14T18:54:18;99920.38;;;17.29;53.06
39699;BME280;25372;50.582;12.250;2023-06-14T19:04:40;99912.00;;;16.54;57.58
39699;BME280;25372;50.582;12.250;2023-06-14T19:15:00;99930.88;;;16.70;55.59
39699;BME280;25372;50.582;12.250;2023-06-14T19:25:22;99931.94;;;15.96;59.02
39699;BME280;25372;50.582;12.250;2023-06-14T19:35:43;99942.81;;;15.38;61.20
39699;BME280;25372;50.582;12.250;2023-06-14T19:46:05;99949.91;;;14.94;63.58
39699;BME280;25372;50.582;12.250;2023-06-14T19:56:26;99960.59;;;14.47;65.17
39699;BME280;25372;50.582;12.250;2023-06-14T20:06:48;99968.16;;;14.17;66.77
39699;BME280;25372;50.582;12.250;2023-06-14T20:17:14;99971.88;;;14.26;68.88
39699;BME280;25372;50.582;12.250;2023-06-14T20:27:36;99987.47;;;14.06;68.92
39699;BME280;25372;50.582;12.250;2023-06-14T20:37:57;99984.66;;;13.85;70.67
39699;BME280;25372;50.582;12.250;2023-06-14T20:48:19;99984.69;;;13.61;70.83
39699;BME280;25372;50.582;12.250;2023-06-14T20:58:40;99976.53;;;13.39;71.20
39699;BME280;25372;50.582;12.250;2023-06-14T21:09:02;99981.47;;;12.82;74.47
39699;BME280;25372;50.582;12.250;2023-06-14T21:19:23;99983.91;;;12.72;73.26
39699;BME280;25372;50.582;12.250;2023-06-14T21:29:46;99984.03;;;12.19;75.12
39699;BME280;25372;50.582;12.250;2023-06-14T21:40:09;99988.00;;;11.99;76.00
39699;BME280;25372;50.582;12.250;2023-06-14T21:50:32;99992.28;;;11.74;76.18
39699;BME280;25372;50.582;12.250;2023-06-14T22:00:53;99990.56;;;11.60;77.78
39699;BME280;25372;50.582;12.250;2023-06-14T22:11:15;99979.94;;;12.15;75.31
39699;BME280;25372;50.582;12.250;2023-06-14T22:21:36;99989.75;;;11.45;76.84
39699;BME280;25372;50.582;12.250;2023-06-14T22:31:58;99999.34;;;11.46;76.39
39699;BME280;25372;50.582;12.250;2023-06-14T22:42:18;99994.31;;;11.56;76.15
39699;BME280;25372;50.582;12.250;2023-06-14T22:52:40;99990.19;;;11.52;76.25
39699;BME280;25372;50.582;12.250;2023-06-14T23:03:04;99991.41;;;11.73;75.71
39699;BME280;25372;50.582;12.250;2023-06-14T23:13:27;100001.53;;;11.39;77.23
39699;BME280;25372;50.582;12.250;2023-06-14T23:23:48;99997.00;;;11.41;76.70
39699;BME280;25372;50.582;12.250;2023-06-14T23:34:11;99994.72;;;11.50;77.05
39699;BME280;25372;50.582;12.250;2023-06-14T23:44:31;99995.06;;;11.30;76.35
39699;BME280;25372;50.582;12.250;2023-06-14T23:54:57;99990.56;;;11.32;78.41
